EAG5530 SBRJ-SBSV
Flight info
| Callsign | EAG5530 |
|---|---|
| Flight time | 1h 40m |
| Altitude | 37000 |
| Route | IMBAP UZ42 SIRAP DCT OSAGU DCT ZUMBA |
| Aircraft | B38M/M-SDE1FGHILORVWXY/HB1 |
Departure
| Time | 2026-04-28 21:35 |
|---|---|
| Airport | Santos Dumont Airport (SBRJ) |
Arrival
| Time | 2026-04-28 23:15 |
|---|---|
| Airport | Deputado Luiz Eduardo Magalhães International Airport (SBSV) |
| Time | Latitude | Longitude | Altitude | Speed | Heading |
|---|---|---|---|---|---|
| 2026-04-28 21:24 | -22.91245 | -43.16577 | 25 ft | 0 kts | 267° |
| 2026-04-28 21:27 | -22.91245 | -43.16564 | 26 ft | 4 kts | 267° |
| 2026-04-28 21:27 | -22.91243 | -43.16538 | 27 ft | 4 kts | 272° |
| 2026-04-28 21:27 | -22.91251 | -43.16515 | 26 ft | 4 kts | 329° |
| 2026-04-28 21:28 | -22.91274 | -43.16509 | 27 ft | 2 kts | 356° |
| 2026-04-28 21:28 | -22.91280 | -43.16509 | 29 ft | 0 kts | 356° |
| 2026-04-28 21:32 | -22.91276 | -43.16509 | 27 ft | 3 kts | 356° |
| 2026-04-28 21:32 | -22.91181 | -43.16515 | 24 ft | 23 kts | 356° |
| 2026-04-28 21:32 | -22.90998 | -43.16540 | 26 ft | 28 kts | 356° |
| 2026-04-28 21:32 | -22.90799 | -43.16546 | 25 ft | 27 kts | 5° |
| 2026-04-28 21:33 | -22.90634 | -43.16551 | 26 ft | 28 kts | 356° |
| 2026-04-28 21:33 | -22.90531 | -43.16557 | 25 ft | 8 kts | 10° |
| 2026-04-28 21:33 | -22.90500 | -43.16510 | 25 ft | 9 kts | 81° |
| 2026-04-28 21:33 | -22.90492 | -43.16437 | 26 ft | 10 kts | 85° |
| 2026-04-28 21:34 | -22.90473 | -43.16364 | 26 ft | 11 kts | 67° |
| 2026-04-28 21:34 | -22.90472 | -43.16317 | 26 ft | 0 kts | 137° |
| 2026-04-28 21:34 | -22.90488 | -43.16316 | 26 ft | 6 kts | 185° |
| 2026-04-28 21:34 | -22.90511 | -43.16317 | 26 ft | 0 kts | 177° |
| 2026-04-28 21:35 | -22.90523 | -43.16316 | 26 ft | 4 kts | 177° |
| 2026-04-28 21:35 | -22.90801 | -43.16298 | 27 ft | 84 kts | 176° |
| 2026-04-28 21:35 | -22.91653 | -43.16240 | 54 ft | 153 kts | 176° |
| 2026-04-28 21:35 | -22.92781 | -43.16077 | 647 ft | 170 kts | 162° |
| 2026-04-28 21:36 | -22.93850 | -43.15453 | 1314 ft | 186 kts | 142° |
| 2026-04-28 21:36 | -22.94975 | -43.14459 | 1645 ft | 219 kts | 136° |
| 2026-04-28 21:36 | -22.96108 | -43.13230 | 2343 ft | 244 kts | 129° |
| 2026-04-28 21:36 | -22.97223 | -43.11909 | 3673 ft | 234 kts | 132° |
| 2026-04-28 21:37 | -22.98404 | -43.10607 | 4496 ft | 251 kts | 134° |
| 2026-04-28 21:37 | -22.99680 | -43.09289 | 5495 ft | 254 kts | 135° |
| 2026-04-28 21:37 | -23.01013 | -43.07950 | 6315 ft | 270 kts | 134° |
| 2026-04-28 21:37 | -23.02054 | -43.06195 | 6935 ft | 287 kts | 106° |
| 2026-04-28 21:38 | -23.02185 | -43.04075 | 7963 ft | 284 kts | 79° |
| 2026-04-28 21:38 | -23.01573 | -43.02026 | 8849 ft | 290 kts | 66° |
| 2026-04-28 21:38 | -23.00822 | -42.99982 | 9848 ft | 293 kts | 66° |
| 2026-04-28 21:38 | -23.00049 | -42.97906 | 10698 ft | 300 kts | 66° |
| 2026-04-28 21:39 | -22.99247 | -42.95770 | 11410 ft | 310 kts | 66° |
| 2026-04-28 21:39 | -22.98425 | -42.93597 | 12312 ft | 313 kts | 66° |
| 2026-04-28 21:39 | -22.97589 | -42.91395 | 13112 ft | 318 kts | 65° |
| 2026-04-28 21:39 | -22.96433 | -42.89358 | 13938 ft | 318 kts | 43° |
| 2026-04-28 21:40 | -22.94659 | -42.87949 | 14731 ft | 318 kts | 27° |
| 2026-04-28 21:40 | -22.92721 | -42.86750 | 15533 ft | 323 kts | 27° |
| 2026-04-28 21:40 | -22.90760 | -42.85543 | 16355 ft | 326 kts | 26° |
| 2026-04-28 21:40 | -22.88768 | -42.84347 | 17162 ft | 329 kts | 22° |
| 2026-04-28 21:41 | -22.86622 | -42.83685 | 17911 ft | 325 kts | 0° |
| 2026-04-28 21:41 | -22.84383 | -42.83831 | 18657 ft | 324 kts | 350° |
| 2026-04-28 21:41 | -22.82134 | -42.84139 | 19284 ft | 328 kts | 350° |
| 2026-04-28 21:41 | -22.79857 | -42.84478 | 19920 ft | 331 kts | 349° |
| 2026-04-28 21:42 | -22.77560 | -42.84826 | 20539 ft | 335 kts | 349° |
| 2026-04-28 21:42 | -22.75237 | -42.85179 | 21134 ft | 339 kts | 349° |
| 2026-04-28 21:42 | -22.72893 | -42.85540 | 21727 ft | 342 kts | 349° |
| 2026-04-28 21:42 | -22.70527 | -42.85924 | 22300 ft | 345 kts | 348° |
| 2026-04-28 21:43 | -22.68144 | -42.86319 | 22870 ft | 348 kts | 348° |
| 2026-04-28 21:43 | -22.65733 | -42.86718 | 23414 ft | 351 kts | 348° |
| 2026-04-28 21:43 | -22.63307 | -42.87121 | 23883 ft | 354 kts | 348° |
| 2026-04-28 21:43 | -22.60868 | -42.87525 | 24311 ft | 356 kts | 348° |
| 2026-04-28 21:44 | -22.58407 | -42.87933 | 24743 ft | 358 kts | 348° |
| 2026-04-28 21:44 | -22.55938 | -42.88343 | 25175 ft | 360 kts | 348° |
| 2026-04-28 21:44 | -22.53453 | -42.88754 | 25595 ft | 361 kts | 348° |
| 2026-04-28 21:44 | -22.50999 | -42.89161 | 26034 ft | 363 kts | 347° |
| 2026-04-28 21:45 | -22.48496 | -42.89575 | 26443 ft | 365 kts | 347° |
| 2026-04-28 21:45 | -22.45981 | -42.89991 | 26831 ft | 367 kts | 347° |
| 2026-04-28 21:45 | -22.43446 | -42.90410 | 27186 ft | 369 kts | 347° |
| 2026-04-28 21:45 | -22.40898 | -42.90832 | 27607 ft | 370 kts | 347° |
| 2026-04-28 21:46 | -22.38342 | -42.91255 | 28009 ft | 372 kts | 347° |
| 2026-04-28 21:46 | -22.35781 | -42.91678 | 28395 ft | 374 kts | 347° |
| 2026-04-28 21:46 | -22.33202 | -42.92105 | 28793 ft | 375 kts | 347° |
| 2026-04-28 21:46 | -22.30609 | -42.92534 | 29150 ft | 378 kts | 347° |
| 2026-04-28 21:47 | -22.28007 | -42.92964 | 29514 ft | 379 kts | 347° |
| 2026-04-28 21:47 | -22.25393 | -42.93396 | 29890 ft | 380 kts | 347° |
| 2026-04-28 21:47 | -22.22772 | -42.93829 | 30200 ft | 382 kts | 347° |
| 2026-04-28 21:47 | -22.20136 | -42.94265 | 30487 ft | 385 kts | 347° |
| 2026-04-28 21:48 | -22.17438 | -42.94472 | 30711 ft | 394 kts | 0° |
| 2026-04-28 21:48 | -22.14741 | -42.93819 | 31007 ft | 406 kts | 17° |
| 2026-04-28 21:48 | -22.12212 | -42.92341 | 31216 ft | 418 kts | 27° |
| 2026-04-28 21:48 | -22.09752 | -42.90666 | 31463 ft | 420 kts | 27° |
| 2026-04-28 21:49 | -22.07274 | -42.88981 | 31739 ft | 422 kts | 27° |
| 2026-04-28 21:49 | -22.04790 | -42.87275 | 31974 ft | 425 kts | 27° |
| 2026-04-28 21:49 | -22.02290 | -42.85548 | 32214 ft | 427 kts | 28° |
| 2026-04-28 21:49 | -21.99784 | -42.83815 | 32472 ft | 429 kts | 28° |
| 2026-04-28 21:50 | -21.97266 | -42.82074 | 32724 ft | 432 kts | 28° |
| 2026-04-28 21:50 | -21.94729 | -42.80321 | 32950 ft | 435 kts | 28° |
| 2026-04-28 21:50 | -21.92170 | -42.78552 | 33195 ft | 437 kts | 28° |
| 2026-04-28 21:50 | -21.89603 | -42.76779 | 33435 ft | 439 kts | 28° |
| 2026-04-28 21:51 | -21.87056 | -42.75021 | 33652 ft | 441 kts | 28° |
| 2026-04-28 21:51 | -21.84462 | -42.73231 | 33858 ft | 444 kts | 28° |
| 2026-04-28 21:51 | -21.81824 | -42.71411 | 34085 ft | 446 kts | 28° |
| 2026-04-28 21:51 | -21.79232 | -42.69625 | 34266 ft | 449 kts | 28° |
| 2026-04-28 21:52 | -21.76605 | -42.67814 | 34480 ft | 450 kts | 28° |
| 2026-04-28 21:52 | -21.73962 | -42.65994 | 34688 ft | 451 kts | 28° |
| 2026-04-28 21:52 | -21.71312 | -42.64169 | 34866 ft | 453 kts | 28° |
| 2026-04-28 21:52 | -21.68650 | -42.62337 | 35050 ft | 455 kts | 28° |
| 2026-04-28 21:53 | -21.65971 | -42.60493 | 35243 ft | 457 kts | 28° |
| 2026-04-28 21:53 | -21.63270 | -42.58687 | 35399 ft | 457 kts | 24° |
| 2026-04-28 21:53 | -21.60451 | -42.57111 | 35597 ft | 457 kts | 24° |
| 2026-04-28 21:53 | -21.57628 | -42.55509 | 35767 ft | 460 kts | 24° |
| 2026-04-28 21:54 | -21.54802 | -42.53885 | 35941 ft | 461 kts | 24° |
| 2026-04-28 21:54 | -21.51968 | -42.52250 | 36119 ft | 463 kts | 24° |
| 2026-04-28 21:54 | -21.49131 | -42.50611 | 36303 ft | 464 kts | 24° |
| 2026-04-28 21:54 | -21.46281 | -42.48964 | 36460 ft | 466 kts | 24° |
| 2026-04-28 21:55 | -21.43420 | -42.47314 | 36603 ft | 468 kts | 24° |
| 2026-04-28 21:55 | -21.40555 | -42.45660 | 36765 ft | 469 kts | 24° |
| 2026-04-28 21:55 | -21.37670 | -42.43996 | 36934 ft | 471 kts | 24° |
| 2026-04-28 21:55 | -21.34782 | -42.42331 | 37045 ft | 473 kts | 24° |
| 2026-04-28 21:56 | -21.28942 | -42.38966 | 37047 ft | 479 kts | 24° |
| 2026-04-28 21:56 | -21.23057 | -42.35578 | 37033 ft | 480 kts | 25° |
| 2026-04-28 21:57 | -21.17221 | -42.32223 | 37060 ft | 480 kts | 25° |
| 2026-04-28 21:57 | -21.11339 | -42.28842 | 37062 ft | 479 kts | 25° |
| 2026-04-28 21:58 | -21.06409 | -42.26012 | 37051 ft | 479 kts | 25° |
| 2026-04-28 21:58 | -21.00560 | -42.22657 | 37062 ft | 480 kts | 25° |
| 2026-04-28 21:59 | -20.94675 | -42.19284 | 37067 ft | 479 kts | 25° |
| 2026-04-28 22:00 | -20.85848 | -42.14231 | 37081 ft | 479 kts | 25° |
| 2026-04-28 22:00 | -20.79973 | -42.10871 | 37087 ft | 478 kts | 25° |
| 2026-04-28 22:01 | -20.74112 | -42.07523 | 37100 ft | 478 kts | 25° |
| 2026-04-28 22:01 | -20.68255 | -42.04179 | 37096 ft | 477 kts | 25° |
| 2026-04-28 22:02 | -20.62421 | -42.00895 | 37091 ft | 476 kts | 20° |
| 2026-04-28 22:02 | -20.56222 | -41.98500 | 37104 ft | 474 kts | 17° |
| 2026-04-28 22:03 | -20.49998 | -41.96149 | 37114 ft | 474 kts | 17° |
| 2026-04-28 22:03 | -20.43776 | -41.93810 | 37109 ft | 474 kts | 17° |
| 2026-04-28 22:04 | -20.37555 | -41.91472 | 37088 ft | 473 kts | 17° |
| 2026-04-28 22:04 | -20.31336 | -41.89139 | 37112 ft | 474 kts | 17° |
| 2026-04-28 22:05 | -20.25124 | -41.86810 | 37109 ft | 473 kts | 17° |
| 2026-04-28 22:05 | -20.18909 | -41.84481 | 37101 ft | 473 kts | 17° |
| 2026-04-28 22:06 | -20.12693 | -41.82155 | 37094 ft | 474 kts | 17° |
| 2026-04-28 22:06 | -20.06474 | -41.79829 | 37089 ft | 474 kts | 17° |
| 2026-04-28 22:07 | -20.00293 | -41.77519 | 37093 ft | 474 kts | 17° |
| 2026-04-28 22:07 | -19.94082 | -41.75200 | 37072 ft | 473 kts | 17° |
| 2026-04-28 22:08 | -19.87856 | -41.72877 | 37075 ft | 474 kts | 17° |
| 2026-04-28 22:08 | -19.81635 | -41.70558 | 37074 ft | 474 kts | 17° |
| 2026-04-28 22:09 | -19.75403 | -41.68237 | 37070 ft | 474 kts | 17° |
| 2026-04-28 22:09 | -19.69183 | -41.65922 | 37061 ft | 474 kts | 17° |
| 2026-04-28 22:10 | -19.62957 | -41.63607 | 37068 ft | 474 kts | 17° |
| 2026-04-28 22:10 | -19.56732 | -41.61294 | 37066 ft | 474 kts | 17° |
| 2026-04-28 22:11 | -19.50501 | -41.58981 | 37061 ft | 474 kts | 17° |
| 2026-04-28 22:11 | -19.44304 | -41.56683 | 37061 ft | 474 kts | 17° |
| 2026-04-28 22:12 | -19.38084 | -41.54377 | 37059 ft | 474 kts | 17° |
| 2026-04-28 22:12 | -19.31858 | -41.52072 | 37059 ft | 474 kts | 17° |
| 2026-04-28 22:13 | -19.25632 | -41.49767 | 37059 ft | 474 kts | 17° |
| 2026-04-28 22:13 | -19.19400 | -41.47464 | 37063 ft | 474 kts | 17° |
| 2026-04-28 22:14 | -19.13181 | -41.45167 | 37062 ft | 474 kts | 17° |
| 2026-04-28 22:14 | -19.06957 | -41.42869 | 37062 ft | 474 kts | 17° |
| 2026-04-28 22:15 | -19.00726 | -41.40571 | 37052 ft | 473 kts | 18° |
| 2026-04-28 22:15 | -18.94510 | -41.38280 | 37059 ft | 473 kts | 18° |
| 2026-04-28 22:16 | -18.88288 | -41.35989 | 37059 ft | 473 kts | 18° |
| 2026-04-28 22:16 | -18.82098 | -41.33711 | 37062 ft | 474 kts | 18° |
| 2026-04-28 22:17 | -18.75878 | -41.31423 | 37057 ft | 473 kts | 18° |
| 2026-04-28 22:17 | -18.69653 | -41.29137 | 37068 ft | 474 kts | 18° |
| 2026-04-28 22:18 | -18.63428 | -41.26851 | 37070 ft | 474 kts | 18° |
| 2026-04-28 22:18 | -18.57202 | -41.24568 | 37070 ft | 474 kts | 18° |
| 2026-04-28 22:19 | -18.50968 | -41.22283 | 37067 ft | 474 kts | 18° |
| 2026-04-28 22:19 | -18.44745 | -41.20003 | 37065 ft | 473 kts | 18° |
| 2026-04-28 22:20 | -18.38520 | -41.17727 | 37073 ft | 474 kts | 18° |
| 2026-04-28 22:20 | -18.32299 | -41.15450 | 37062 ft | 473 kts | 18° |
| 2026-04-28 22:21 | -18.26122 | -41.13193 | 37071 ft | 472 kts | 18° |
| 2026-04-28 22:21 | -18.19912 | -41.10926 | 37070 ft | 472 kts | 18° |
| 2026-04-28 22:22 | -18.13697 | -41.08658 | 37062 ft | 472 kts | 18° |
| 2026-04-28 22:22 | -18.07481 | -41.06391 | 37062 ft | 472 kts | 18° |
| 2026-04-28 22:23 | -18.01285 | -41.04133 | 37064 ft | 471 kts | 18° |
| 2026-04-28 22:23 | -17.95079 | -41.01874 | 37066 ft | 471 kts | 18° |
| 2026-04-28 22:24 | -17.88969 | -40.99366 | 37078 ft | 472 kts | 22° |
| 2026-04-28 22:24 | -17.82981 | -40.96632 | 37061 ft | 472 kts | 22° |
| 2026-04-28 22:25 | -17.76943 | -40.93921 | 37064 ft | 471 kts | 21° |
| 2026-04-28 22:25 | -17.70910 | -40.91217 | 37066 ft | 471 kts | 21° |
| 2026-04-28 22:26 | -17.64877 | -40.88516 | 37065 ft | 471 kts | 21° |
| 2026-04-28 22:26 | -17.58840 | -40.85815 | 37064 ft | 471 kts | 21° |
| 2026-04-28 22:27 | -17.52815 | -40.83121 | 37067 ft | 471 kts | 21° |
| 2026-04-28 22:27 | -17.46788 | -40.80428 | 37068 ft | 471 kts | 21° |
| 2026-04-28 22:28 | -17.40764 | -40.77739 | 37066 ft | 471 kts | 21° |
| 2026-04-28 22:28 | -17.34726 | -40.75045 | 37065 ft | 471 kts | 22° |
| 2026-04-28 22:29 | -17.28739 | -40.72377 | 37070 ft | 471 kts | 22° |
| 2026-04-28 22:29 | -17.22711 | -40.69691 | 37071 ft | 471 kts | 22° |
| 2026-04-28 22:30 | -17.16682 | -40.67007 | 37072 ft | 471 kts | 21° |
| 2026-04-28 22:30 | -17.10651 | -40.64324 | 37071 ft | 471 kts | 21° |
| 2026-04-28 22:31 | -17.04621 | -40.61644 | 37076 ft | 471 kts | 21° |
| 2026-04-28 22:31 | -16.98586 | -40.58963 | 37076 ft | 471 kts | 22° |
| 2026-04-28 22:32 | -16.92561 | -40.56288 | 37076 ft | 471 kts | 21° |
| 2026-04-28 22:32 | -16.86522 | -40.53609 | 37085 ft | 471 kts | 22° |
| 2026-04-28 22:33 | -16.80491 | -40.50936 | 37085 ft | 471 kts | 22° |
| 2026-04-28 22:33 | -16.74461 | -40.48265 | 37090 ft | 471 kts | 22° |
| 2026-04-28 22:34 | -16.68461 | -40.45609 | 37092 ft | 471 kts | 22° |
| 2026-04-28 22:34 | -16.62425 | -40.42938 | 37089 ft | 471 kts | 22° |
| 2026-04-28 22:35 | -16.56387 | -40.40269 | 37090 ft | 471 kts | 22° |
| 2026-04-28 22:35 | -16.50350 | -40.37602 | 37092 ft | 471 kts | 22° |
| 2026-04-28 22:36 | -16.44323 | -40.34941 | 37091 ft | 471 kts | 22° |
| 2026-04-28 22:36 | -16.38293 | -40.32281 | 37086 ft | 470 kts | 22° |
| 2026-04-28 22:37 | -16.32269 | -40.29625 | 37086 ft | 470 kts | 22° |
| 2026-04-28 22:37 | -16.26245 | -40.26972 | 37080 ft | 470 kts | 22° |
| 2026-04-28 22:38 | -16.20221 | -40.24319 | 37075 ft | 470 kts | 22° |
| 2026-04-28 22:38 | -16.14226 | -40.21682 | 37076 ft | 470 kts | 22° |
| 2026-04-28 22:39 | -16.08207 | -40.19035 | 37079 ft | 470 kts | 22° |
| 2026-04-28 22:39 | -16.02182 | -40.16387 | 37072 ft | 470 kts | 21° |
| 2026-04-28 22:40 | -15.96154 | -40.13740 | 37074 ft | 470 kts | 21° |
| 2026-04-28 22:40 | -15.90129 | -40.11096 | 37071 ft | 469 kts | 22° |
| 2026-04-28 22:41 | -15.84117 | -40.08460 | 37077 ft | 469 kts | 22° |
| 2026-04-28 22:41 | -15.78094 | -40.05820 | 37076 ft | 469 kts | 22° |
| 2026-04-28 22:42 | -15.72075 | -40.03184 | 37072 ft | 469 kts | 21° |
| 2026-04-28 22:42 | -15.66052 | -40.00547 | 37077 ft | 470 kts | 22° |
| 2026-04-28 22:43 | -15.60064 | -39.97928 | 37075 ft | 470 kts | 22° |
| 2026-04-28 22:43 | -15.54037 | -39.95293 | 37072 ft | 470 kts | 22° |
| 2026-04-28 22:44 | -15.48007 | -39.92659 | 37076 ft | 470 kts | 22° |
| 2026-04-28 22:44 | -15.41980 | -39.90027 | 37075 ft | 470 kts | 22° |
| 2026-04-28 22:45 | -15.35956 | -39.87399 | 37080 ft | 470 kts | 22° |
| 2026-04-28 22:45 | -15.30945 | -39.85214 | 37079 ft | 470 kts | 22° |
| 2026-04-28 22:46 | -15.24920 | -39.82588 | 37076 ft | 470 kts | 22° |
| 2026-04-28 22:46 | -15.18893 | -39.79963 | 37080 ft | 470 kts | 22° |
| 2026-04-28 22:47 | -15.12868 | -39.77340 | 37081 ft | 470 kts | 22° |
| 2026-04-28 22:47 | -15.06843 | -39.74719 | 37082 ft | 470 kts | 22° |
| 2026-04-28 22:48 | -15.00818 | -39.72100 | 37085 ft | 470 kts | 22° |
| 2026-04-28 22:48 | -14.94940 | -39.69143 | 37101 ft | 470 kts | 26° |
| 2026-04-28 22:49 | -14.89076 | -39.66123 | 37079 ft | 470 kts | 26° |
| 2026-04-28 22:49 | -14.83210 | -39.63124 | 37079 ft | 470 kts | 25° |
| 2026-04-28 22:50 | -14.77342 | -39.60126 | 37080 ft | 470 kts | 26° |
| 2026-04-28 22:50 | -14.71513 | -39.57150 | 37077 ft | 470 kts | 26° |
| 2026-04-28 22:51 | -14.65641 | -39.54154 | 37076 ft | 470 kts | 26° |
| 2026-04-28 22:51 | -14.59778 | -39.51164 | 37080 ft | 470 kts | 26° |
| 2026-04-28 22:52 | -14.53916 | -39.48177 | 37072 ft | 470 kts | 26° |
| 2026-04-28 22:52 | -14.48080 | -39.45204 | 36324 ft | 466 kts | 26° |
| 2026-04-28 22:52 | -14.45146 | -39.43709 | 35234 ft | 475 kts | 26° |
| 2026-04-28 22:53 | -14.42169 | -39.42194 | 34507 ft | 476 kts | 26° |
| 2026-04-28 22:53 | -14.39209 | -39.40688 | 33849 ft | 474 kts | 27° |
| 2026-04-28 22:53 | -14.36239 | -39.39178 | 32866 ft | 478 kts | 27° |
| 2026-04-28 22:53 | -14.33232 | -39.37648 | 31877 ft | 483 kts | 27° |
| 2026-04-28 22:54 | -14.30246 | -39.36131 | 31029 ft | 484 kts | 27° |
| 2026-04-28 22:54 | -14.27187 | -39.34577 | 30177 ft | 485 kts | 27° |
| 2026-04-28 22:54 | -14.24147 | -39.33032 | 29104 ft | 488 kts | 27° |
| 2026-04-28 22:54 | -14.21137 | -39.31504 | 28062 ft | 489 kts | 27° |
| 2026-04-28 22:55 | -14.18085 | -39.29954 | 27146 ft | 487 kts | 28° |
| 2026-04-28 22:55 | -14.15048 | -39.28413 | 26323 ft | 484 kts | 28° |
| 2026-04-28 22:55 | -14.12039 | -39.26885 | 25500 ft | 480 kts | 28° |
| 2026-04-28 22:55 | -14.09056 | -39.25372 | 24762 ft | 476 kts | 28° |
| 2026-04-28 22:56 | -14.06099 | -39.23873 | 24103 ft | 470 kts | 28° |
| 2026-04-28 22:56 | -14.03202 | -39.22404 | 23431 ft | 457 kts | 28° |
| 2026-04-28 22:56 | -14.00386 | -39.20977 | 22438 ft | 444 kts | 28° |
| 2026-04-28 22:56 | -13.97641 | -39.19587 | 21733 ft | 437 kts | 28° |
| 2026-04-28 22:57 | -13.94916 | -39.18206 | 21052 ft | 434 kts | 28° |
| 2026-04-28 22:57 | -13.92213 | -39.16837 | 20368 ft | 431 kts | 28° |
| 2026-04-28 22:57 | -13.89560 | -39.15494 | 19699 ft | 429 kts | 28° |
| 2026-04-28 22:57 | -13.86890 | -39.14142 | 19023 ft | 428 kts | 28° |
| 2026-04-28 22:58 | -13.84218 | -39.12790 | 18345 ft | 426 kts | 28° |
| 2026-04-28 22:58 | -13.81561 | -39.11446 | 17581 ft | 425 kts | 28° |
| 2026-04-28 22:58 | -13.78925 | -39.10112 | 16903 ft | 422 kts | 28° |
| 2026-04-28 22:58 | -13.76301 | -39.08785 | 16246 ft | 419 kts | 28° |
| 2026-04-28 22:59 | -13.73694 | -39.07467 | 15587 ft | 416 kts | 28° |
| 2026-04-28 22:59 | -13.71105 | -39.06154 | 14938 ft | 413 kts | 29° |
| 2026-04-28 22:59 | -13.68742 | -39.04494 | 14197 ft | 411 kts | 40° |
| 2026-04-28 22:59 | -13.66517 | -39.02683 | 13663 ft | 406 kts | 40° |
| 2026-04-28 23:00 | -13.64308 | -39.00882 | 12954 ft | 405 kts | 40° |
| 2026-04-28 23:00 | -13.62118 | -38.99089 | 12415 ft | 400 kts | 40° |
| 2026-04-28 23:00 | -13.59967 | -38.97323 | 12039 ft | 391 kts | 39° |
| 2026-04-28 23:00 | -13.57867 | -38.95599 | 11803 ft | 379 kts | 39° |
| 2026-04-28 23:01 | -13.55841 | -38.93935 | 11603 ft | 368 kts | 39° |
| 2026-04-28 23:01 | -13.53874 | -38.92321 | 11397 ft | 357 kts | 39° |
| 2026-04-28 23:01 | -13.51959 | -38.90749 | 11205 ft | 347 kts | 39° |
| 2026-04-28 23:01 | -13.50102 | -38.89226 | 11042 ft | 337 kts | 39° |
| 2026-04-28 23:02 | -13.48295 | -38.87743 | 10867 ft | 327 kts | 39° |
| 2026-04-28 23:02 | -13.46543 | -38.86306 | 10711 ft | 318 kts | 39° |
| 2026-04-28 23:02 | -13.44838 | -38.84908 | 10556 ft | 309 kts | 39° |
| 2026-04-28 23:02 | -13.43178 | -38.83548 | 10408 ft | 300 kts | 39° |
| 2026-04-28 23:03 | -13.41583 | -38.82240 | 10256 ft | 286 kts | 39° |
| 2026-04-28 23:03 | -13.40090 | -38.81016 | 10109 ft | 270 kts | 38° |
| 2026-04-28 23:03 | -13.38648 | -38.79834 | 9846 ft | 265 kts | 39° |
| 2026-04-28 23:03 | -13.37185 | -38.78632 | 9497 ft | 273 kts | 39° |
| 2026-04-28 23:04 | -13.35687 | -38.77401 | 9191 ft | 277 kts | 39° |
| 2026-04-28 23:04 | -13.32675 | -38.74931 | 8595 ft | 276 kts | 39° |
| 2026-04-28 23:04 | -13.31184 | -38.73707 | 8289 ft | 274 kts | 39° |
| 2026-04-28 23:05 | -13.29701 | -38.72491 | 8014 ft | 273 kts | 39° |
| 2026-04-28 23:05 | -13.28219 | -38.71275 | 7724 ft | 271 kts | 40° |
| 2026-04-28 23:05 | -13.26747 | -38.70068 | 7428 ft | 270 kts | 40° |
| 2026-04-28 23:05 | -13.25288 | -38.68871 | 7146 ft | 268 kts | 40° |
| 2026-04-28 23:06 | -13.23828 | -38.67674 | 6864 ft | 267 kts | 40° |
| 2026-04-28 23:06 | -13.22401 | -38.66504 | 6582 ft | 265 kts | 40° |
| 2026-04-28 23:06 | -13.20951 | -38.65316 | 6270 ft | 262 kts | 40° |
| 2026-04-28 23:06 | -13.19546 | -38.64165 | 5978 ft | 261 kts | 40° |
| 2026-04-28 23:07 | -13.18133 | -38.63007 | 5692 ft | 260 kts | 40° |
| 2026-04-28 23:07 | -13.16720 | -38.61850 | 5410 ft | 260 kts | 40° |
| 2026-04-28 23:07 | -13.15311 | -38.60695 | 5135 ft | 258 kts | 40° |
| 2026-04-28 23:07 | -13.13923 | -38.59567 | 4940 ft | 248 kts | 40° |
| 2026-04-28 23:08 | -13.12612 | -38.58501 | 4815 ft | 232 kts | 41° |
| 2026-04-28 23:08 | -13.11385 | -38.57503 | 4706 ft | 221 kts | 41° |
| 2026-04-28 23:08 | -13.10182 | -38.56525 | 4616 ft | 221 kts | 41° |
| 2026-04-28 23:08 | -13.08972 | -38.55541 | 4521 ft | 221 kts | 41° |
| 2026-04-28 23:09 | -13.07765 | -38.54559 | 4392 ft | 225 kts | 41° |
| 2026-04-28 23:09 | -13.06550 | -38.53572 | 4319 ft | 221 kts | 41° |
| 2026-04-28 23:09 | -13.05346 | -38.52593 | 4266 ft | 221 kts | 40° |
| 2026-04-28 23:09 | -13.03983 | -38.51856 | 4100 ft | 225 kts | 15° |
| 2026-04-28 23:10 | -13.02440 | -38.51587 | 3852 ft | 225 kts | 12° |
| 2026-04-28 23:10 | -13.00891 | -38.51332 | 3624 ft | 225 kts | 12° |
| 2026-04-28 23:10 | -12.99344 | -38.51085 | 3406 ft | 225 kts | 12° |
| 2026-04-28 23:10 | -12.97808 | -38.50844 | 3224 ft | 221 kts | 11° |
| 2026-04-28 23:11 | -12.96328 | -38.50612 | 3053 ft | 207 kts | 14° |
| 2026-04-28 23:11 | -12.95098 | -38.50004 | 2971 ft | 195 kts | 47° |
| 2026-04-28 23:11 | -12.94374 | -38.48861 | 2815 ft | 192 kts | 70° |
| 2026-04-28 23:11 | -12.93975 | -38.47612 | 2634 ft | 177 kts | 79° |
| 2026-04-28 23:12 | -12.93704 | -38.46412 | 2427 ft | 170 kts | 80° |
| 2026-04-28 23:12 | -12.93462 | -38.45235 | 2263 ft | 167 kts | 81° |
| 2026-04-28 23:12 | -12.93230 | -38.44083 | 2094 ft | 164 kts | 81° |
| 2026-04-28 23:12 | -12.93008 | -38.42986 | 1866 ft | 151 kts | 81° |
| 2026-04-28 23:13 | -12.92801 | -38.41960 | 1668 ft | 141 kts | 82° |
| 2026-04-28 23:13 | -12.92608 | -38.40997 | 1463 ft | 139 kts | 82° |
| 2026-04-28 23:13 | -12.92418 | -38.40031 | 1291 ft | 138 kts | 81° |
| 2026-04-28 23:13 | -12.92223 | -38.39066 | 1096 ft | 138 kts | 81° |
| 2026-04-28 23:14 | -12.92031 | -38.38101 | 954 ft | 138 kts | 81° |
| 2026-04-28 23:14 | -12.91847 | -38.37129 | 787 ft | 139 kts | 81° |
| 2026-04-28 23:14 | -12.91670 | -38.36165 | 576 ft | 137 kts | 79° |
| 2026-04-28 23:14 | -12.91462 | -38.35210 | 395 ft | 137 kts | 78° |
| 2026-04-28 23:15 | -12.91261 | -38.34256 | 237 ft | 137 kts | 79° |
| 2026-04-28 23:15 | -12.91069 | -38.33297 | 63 ft | 137 kts | 78° |
| 2026-04-28 23:15 | -12.90892 | -38.32434 | 55 ft | 99 kts | 78° |
| 2026-04-28 23:15 | -12.90800 | -38.31974 | 49 ft | 41 kts | 78° |
| 2026-04-28 23:16 | -12.90769 | -38.31821 | 48 ft | 18 kts | 81° |
| 2026-04-28 23:16 | -12.90825 | -38.31718 | 47 ft | 16 kts | 163° |
| 2026-04-28 23:16 | -12.90908 | -38.31740 | 54 ft | 12 kts | 241° |
| 2026-04-28 23:16 | -12.90932 | -38.31833 | 53 ft | 15 kts | 258° |
| 2026-04-28 23:17 | -12.90954 | -38.31944 | 55 ft | 17 kts | 258° |
| 2026-04-28 23:17 | -12.90980 | -38.32072 | 56 ft | 20 kts | 258° |
| 2026-04-28 23:17 | -12.91009 | -38.32220 | 55 ft | 22 kts | 258° |
| 2026-04-28 23:17 | -12.91041 | -38.32381 | 54 ft | 25 kts | 258° |
| 2026-04-28 23:18 | -12.91077 | -38.32559 | 52 ft | 26 kts | 256° |
| 2026-04-28 23:18 | -12.91117 | -38.32752 | 48 ft | 24 kts | 258° |
| 2026-04-28 23:18 | -12.91152 | -38.32928 | 49 ft | 27 kts | 258° |
| 2026-04-28 23:18 | -12.91186 | -38.33092 | 46 ft | 10 kts | 251° |
| 2026-04-28 23:19 | -12.91249 | -38.33131 | 44 ft | 12 kts | 219° |
| 2026-04-28 23:19 | -12.91271 | -38.33212 | 46 ft | 13 kts | 261° |
| 2026-04-28 23:19 | -12.91284 | -38.33270 | 46 ft | 0 kts | 237° |
| 2026-04-28 23:19 | -12.91288 | -38.33271 | 46 ft | 1 kts | 197° |
| 2026-04-28 23:20 | -12.91308 | -38.33274 | 46 ft | 4 kts | 181° |
| 2026-04-28 23:20 | -12.91339 | -38.33271 | 44 ft | 0 kts | 174° |